TimeEDT,TemperatureF,Dew PointF,Humidity,Sea Level PressureIn,VisibilityMPH,Wind Direction,Wind SpeedMPH,Gust SpeedMPH,PrecipitationIn,Events,Conditions,WindDirDegrees,DateUTC
12:15 AM,56.8,51.4,82,30.05,10.0,SE,10.4,-,N/A,,Clear,140,2013-09-09 04:15:00
12:35 AM,57.2,51.8,82,30.05,10.0,SSE,11.5,18.4,N/A,,Clear,150,2013-09-09 04:35:00
12:55 AM,57.2,52.5,84,30.05,10.0,SSE,12.7,21.9,N/A,,Clear,160,2013-09-09 04:55:00
1:15 AM,57.0,52.5,85,30.05,10.0,SSE,10.4,18.4,N/A,,Clear,150,2013-09-09 05:15:00
1:35 AM,56.7,52.7,87,30.05,10.0,SSE,12.7,18.4,N/A,,Clear,160,2013-09-09 05:35:00
1:55 AM,56.7,52.7,87,30.05,10.0,SSE,12.7,19.6,N/A,,Clear,160,2013-09-09 05:55:00
2:15 AM,56.5,52.0,85,30.05,10.0,SSE,11.5,19.6,N/A,,Clear,160,2013-09-09 06:15:00
2:35 AM,56.7,51.8,84,30.04,10.0,SSE,12.7,19.6,N/A,,Clear,160,2013-09-09 06:35:00
2:55 AM,56.8,51.4,82,30.03,10.0,SSE,12.7,18.4,N/A,,Clear,160,2013-09-09 06:55:00
3:15 AM,57.0,51.1,81,30.03,10.0,SSE,11.5,18.4,N/A,,Clear,160,2013-09-09 07:15:00
3:35 AM,57.0,50.9,80,30.03,10.0,South,8.1,16.1,N/A,,Clear,170,2013-09-09 07:35:00
3:55 AM,57.0,50.9,80,30.03,10.0,SSE,10.4,-,N/A,,Clear,160,2013-09-09 07:55:00
4:15 AM,56.8,50.9,80,30.02,10.0,SSE,10.4,-,N/A,,Clear,160,2013-09-09 08:15:00
4:35 AM,56.8,50.9,80,30.01,10.0,SSE,11.5,-,N/A,,Clear,160,2013-09-09 08:35:00
4:55 AM,57.2,50.9,79,30.02,10.0,South,11.5,-,N/A,,Clear,170,2013-09-09 08:55:00
5:15 AM,57.2,51.1,80,30.01,10.0,South,12.7,18.4,N/A,,Clear,180,2013-09-09 09:15:00
5:35 AM,57.0,51.3,81,30.00,10.0,South,11.5,-,N/A,,Clear,170,2013-09-09 09:35:00
5:55 AM,57.2,51.4,81,30.00,10.0,South,9.2,-,N/A,,Clear,170,2013-09-09 09:55:00
6:15 AM,57.2,51.6,82,30.00,10.0,South,10.4,-,N/A,,Clear,180,2013-09-09 10:15:00
6:35 AM,57.2,51.8,82,30.00,10.0,South,10.4,-,N/A,,Scattered Clouds,170,2013-09-09 10:35:00
6:56 AM,57.4,52.0,82,30.00,10.0,South,8.1,-,N/A,,Overcast,180,2013-09-09 10:56:00
7:16 AM,57.4,52.0,82,29.99,10.0,South,6.9,-,N/A,,Overcast,180,2013-09-09 11:16:00
7:35 AM,57.6,52.2,82,30.00,10.0,Calm,Calm,-,N/A,,Overcast,0,2013-09-09 11:35:00
7:56 AM,58.1,52.3,81,29.99,10.0,South,5.8,-,N/A,,Mostly Cloudy,170,2013-09-09 11:56:00
8:16 AM,58.1,52.7,82,29.98,10.0,South,5.8,-,N/A,,Overcast,170,2013-09-09 12:16:00
8:35 AM,58.5,52.7,81,29.98,10.0,South,5.8,-,N/A,,Overcast,170,2013-09-09 12:35:00
8:56 AM,59.0,52.9,80,29.98,10.0,South,6.9,-,N/A,,Overcast,180,2013-09-09 12:56:00
9:16 AM,59.2,52.9,80,29.99,10.0,South,6.9,-,N/A,,Overcast,170,2013-09-09 13:16:00
9:36 AM,59.5,53.2,80,29.98,10.0,SSE,5.8,-,N/A,,Overcast,160,2013-09-09 13:36:00
9:56 AM,60.1,54.0,80,29.97,10.0,SSE,8.1,-,N/A,,Overcast,160,2013-09-09 13:56:00
10:16 AM,60.8,53.8,78,29.98,10.0,SSE,6.9,-,N/A,,Overcast,160,2013-09-09 14:16:00
10:36 AM,60.8,54.1,79,29.97,10.0,SE,4.6,-,N/A,,Overcast,140,2013-09-09 14:36:00
10:56 AM,61.9,54.9,78,29.96,10.0,SSE,5.8,-,N/A,,Overcast,160,2013-09-09 14:56:00
11:16 AM,62.6,54.9,76,29.97,10.0,South,4.6,-,N/A,,Overcast,170,2013-09-09 15:16:00
11:35 AM,62.2,55.2,78,29.97,10.0,South,5.8,-,N/A,,Overcast,170,2013-09-09 15:35:00
11:56 AM,62.8,55.6,77,29.96,10.0,SSE,3.5,-,N/A,,Overcast,160,2013-09-09 15:56:00
12:16 PM,63.5,56.3,77,29.96,10.0,South,3.5,-,N/A,,Overcast,170,2013-09-09 16:16:00
12:36 PM,64.0,56.3,76,29.96,10.0,Calm,Calm,-,N/A,,Overcast,0,2013-09-09 16:36:00
12:56 PM,64.9,56.1,73,29.95,10.0,Calm,Calm,-,N/A,,Overcast,0,2013-09-09 16:56:00
1:16 PM,64.9,56.3,74,29.95,10.0,Calm,Calm,-,N/A,,Overcast,0,2013-09-09 17:16:00
1:36 PM,65.3,56.8,74,29.95,10.0,South,3.5,-,N/A,,Overcast,190,2013-09-09 17:36:00
1:56 PM,65.3,56.5,73,29.93,10.0,South,3.5,-,N/A,,Overcast,180,2013-09-09 17:56:00
2:16 PM,65.3,57.0,75,29.93,10.0,Calm,Calm,-,N/A,,Overcast,0,2013-09-09 18:16:00
2:36 PM,66.7,58.3,74,29.92,10.0,Calm,Calm,-,N/A,,Overcast,0,2013-09-09 18:36:00
2:56 PM,65.3,57.7,76,29.89,10.0,East,4.6,-,N/A,,Overcast,90,2013-09-09 18:56:00
3:15 PM,62.6,57.6,84,29.86,10.0,East,4.6,-,N/A,,Mostly Cloudy,100,2013-09-09 19:15:00
3:36 PM,62.8,56.8,81,29.88,10.0,East,4.6,-,N/A,,Mostly Cloudy,80,2013-09-09 19:36:00
3:56 PM,61.9,56.8,84,29.89,10.0,ENE,3.5,-,N/A,,Overcast,70,2013-09-09 19:56:00
4:15 PM,61.7,57.7,87,29.86,10.0,East,6.9,-,N/A,Rain,Light Rain,90,2013-09-09 20:15:00
4:36 PM,61.2,58.5,91,29.87,10.0,East,5.8,-,N/A,,Overcast,80,2013-09-09 20:36:00
4:56 PM,61.0,58.6,92,29.87,10.0,ESE,4.6,-,N/A,,Overcast,110,2013-09-09 20:56:00
5:16 PM,62.1,58.6,89,29.80,10.0,East,11.5,17.3,N/A,,Overcast,90,2013-09-09 21:16:00
5:36 PM,61.2,59.4,94,29.81,10.0,East,5.8,-,N/A,,Mostly Cloudy,100,2013-09-09 21:36:00
5:55 PM,63.1,60.3,90,29.83,10.0,SE,5.8,-,N/A,,Scattered Clouds,130,2013-09-09 21:55:00
6:16 PM,64.8,60.6,86,29.82,10.0,ESE,5.8,-,N/A,,Scattered Clouds,110,2013-09-09 22:16:00
6:36 PM,66.0,61.7,86,29.81,10.0,SSE,3.5,-,N/A,,Scattered Clouds,150,2013-09-09 22:36:00
6:55 PM,67.1,62.1,84,29.82,10.0,SSE,3.5,-,N/A,,Scattered Clouds,160,2013-09-09 22:55:00
7:16 PM,65.5,63.0,92,29.81,10.0,Calm,Calm,-,N/A,,Scattered Clouds,0,2013-09-09 23:16:00
7:36 PM,64.2,61.9,92,29.81,10.0,Calm,Calm,-,N/A,,Scattered Clouds,0,2013-09-09 23:36:00
7:56 PM,63.9,61.5,92,29.80,10.0,ENE,3.5,-,N/A,,Scattered Clouds,60,2013-09-09 23:56:00
8:16 PM,62.6,60.8,94,29.80,10.0,ENE,4.6,-,N/A,,Scattered Clouds,60,2013-09-10 00:16:00
8:36 PM,61.3,60.1,96,29.81,10.0,ENE,5.8,-,N/A,,Mostly Cloudy,60,2013-09-10 00:36:00
8:55 PM,62.4,60.8,94,29.81,10.0,ENE,4.6,-,N/A,,Overcast,70,2013-09-10 00:55:00
9:16 PM,62.6,60.8,94,29.81,10.0,East,6.9,-,N/A,,Mostly Cloudy,80,2013-09-10 01:16:00
9:36 PM,63.0,60.8,93,29.81,10.0,ENE,8.1,-,N/A,,Mostly Cloudy,70,2013-09-10 01:36:00
9:55 PM,63.0,60.8,93,29.80,10.0,East,6.9,-,N/A,,Overcast,80,2013-09-10 01:55:00
10:16 PM,62.6,60.8,94,29.78,10.0,East,9.2,-,N/A,,Overcast,80,2013-09-10 02:16:00
10:35 PM,62.1,60.8,96,29.77,10.0,East,6.9,-,N/A,,Overcast,100,2013-09-10 02:35:00
10:56 PM,63.5,61.9,94,29.75,10.0,ESE,6.9,-,N/A,,Overcast,120,2013-09-10 02:56:00
11:16 PM,64.8,63.0,94,29.75,10.0,ESE,4.6,-,N/A,,Overcast,110,2013-09-10 03:16:00
11:35 PM,67.1,64.9,93,29.73,10.0,SE,8.1,-,N/A,,Mostly Cloudy,140,2013-09-10 03:35:00
11:56 PM,66.7,64.4,92,29.74,10.0,SSE,5.8,-,N/A,,Mostly Cloudy,150,2013-09-10 03:56:00